Glory Ace — 3FAF9 — position and weather

sailwx.info

Track history (hours):
 
Tides and Currents Weather Stations Pressure Air Temp Water Temp Dewpoint Dewpoint Depression Visibility Wind Speed Wind Dir Waves Ship Positions

Glory Ace

Last reported at 2018-May-24 00:30 UTC. Time now 2018-May-24 00:35 UTC.
Position N 54°24' E 003°32'.

Length 142 m; draft 6.2 m.

Type: Tanker. MMSI: 354913000.

Date/timePositionNaut miles runAvg speedWind from/ knotsBaromVisibWave heightAir tempDewpointWater temp
2018-May-24 00:30N 54°24' E 003°32'612.0
2018-May-24 00:00N 54°18' E 003°34'911.7
2018-May-23 23:14N 54°09' E 003°37'210.9
2018-May-23 23:00N 54°06' E 003°36'911.7
2018-May-23 22:16N 54°15' E 003°34'412.9
2018-May-23 21:58N 54°19' E 003°34'613.0
2018-May-23 21:29N 54°25' E 003°34'3212.7
2018-May-23 18:56N 54°57' E 003°31'511.8
2018-May-23 18:30N 54°52' E 003°33'612.1
2018-May-23 18:00N 54°46' E 003°35'612.1
2018-May-23 17:29N 54°40' E 003°37'1311.9
2018-May-23 16:22N 54°27' E 003°42'412.0
2018-May-23 16:00N 54°23' E 003°44'612.0
2018-May-23 15:30N 54°17' E 003°46'611.7
2018-May-23 15:00N 54°11' E 003°47'1111.7
2018-May-23 14:05N 54°21' E 003°41'112.8
2018-May-23 14:00N 54°22' E 003°40'1812.9
2018-May-23 12:34N 54°40' E 003°34'112.8
2018-May-23 12:30N 54°41' E 003°34'30 2.8
2018-May-23 02:01N 54°59' E 004°14'213.0
2018-May-23 01:52N 55°01' E 004°17'30 9.7
2018-May-22 22:47N 54°44' E 003°34'1210.9
2018-May-22 21:39N 54°34' E 003°20'312.5
2018-May-22 21:23N 54°31' E 003°21'512.7
2018-May-22 20:59N 54°26' E 003°23'612.8
2018-May-22 20:30N 54°20' E 003°25'41 9.3
2018-May-22 16:07N 54°31' E 004°33'112.8
2018-May-22 16:00N 54°31' E 004°30'612.7
2018-May-22 15:30N 54°28' E 004°20'712.8
2018-May-22 14:58N 54°26' E 004°10'22 3.7
2018-May-22 09:12N 54°40' E 004°38'511.1
2018-May-22 08:46N 54°38' E 004°30'311.8
2018-May-22 08:30N 54°37' E 004°25'611.8
2018-May-22 07:59N 54°35' E 004°15'18 2.6
2018-May-22 00:51N 54°24' E 004°42'412.5
2018-May-22 00:30N 54°20' E 004°41'612.6
2018-May-22 00:00N 54°14' E 004°41'712.6
2018-May-21 23:29N 54°07' E 004°41'612.7
2018-May-21 23:00N 54°01' E 004°39'612.7
2018-May-21 22:30N 53°55' E 004°35'612.7
2018-May-21 22:00N 53°51' E 004°28'612.6
2018-May-21 21:30N 53°46' E 004°20'612.6
2018-May-21 21:00N 53°43' E 004°12'612.5
2018-May-21 20:30N 53°39' E 004°04'612.1
2018-May-21 19:59N 53°35' E 003°55'612.1
2018-May-21 19:30N 53°31' E 003°47'612.4
2018-May-21 19:00N 53°26' E 003°42'612.5
2018-May-21 18:30N 53°20' E 003°38'612.4
2018-May-21 18:00N 53°14' E 003°34'612.2
2018-May-21 17:30N 53°09' E 003°30'711.9
2018-May-21 16:54N 53°02' E 003°24'511.9
2018-May-21 16:30N 52°58' E 003°22'711.7
2018-May-21 15:53N 52°51' E 003°17'411.4
2018-May-21 15:29N 52°47' E 003°14'1610.9
2018-May-21 14:02N 52°32' E 003°06'411.2
2018-May-21 13:39N 52°28' E 003°07'211.2
2018-May-21 13:28N 52°26' E 003°07'510.9
2018-May-21 13:00N 52°21' E 003°09'612.7
2018-May-21 12:30N 52°17' E 003°18'612.0
2018-May-21 12:01N 52°13' E 003°25'612.1
2018-May-21 11:30N 52°09' E 003°31'612.9
2018-May-21 11:00N 52°06' E 003°41'713.0
2018-May-21 10:30N 52°03' E 003°50'510.0
2018-May-21 10:00N 52°01' E 003°58'612.5
2018-May-21 09:30N 51°59' E 004°07'612.2
2018-May-21 09:00N 51°55' E 004°15'4 8.5
2018-May-21 08:30N 51°54' E 004°22'0 0.1
2018-May-21 08:00N 51°54' E 004°22'0 0.0
2018-May-21 07:24N 51°54' E 004°22'0 0.0
2018-May-21 06:57N 51°54' E 004°22'0 0.0
2018-May-21 06:30N 51°54' E 004°22'0 0.0
2018-May-21 06:00N 51°54' E 004°22'0 0.0
2018-May-21 05:24N 51°54' E 004°22'0 0.0
2018-May-21 04:51N 51°54' E 004°22'0 0.0
2018-May-21 04:30N 51°54' E 004°22'0 0.0
2018-May-21 03:54N 51°54' E 004°22'0 0.0
2018-May-21 03:18N 51°54' E 004°22'0 0.0
2018-May-21 02:57N 51°54' E 004°22'0 0.0
2018-May-21 02:30N 51°54' E 004°22'0 0.0
2018-May-21 02:00N 51°54' E 004°22'0 0.0
2018-May-21 01:27N 51°54' E 004°22'0 0.0
2018-May-21 01:00N 51°54' E 004°22'0 0.0
2018-May-21 00:30N 51°54' E 004°22'0 0.0
2018-May-21 00:00N 51°54' E 004°22'0 0.0
2018-May-20 23:30N 51°54' E 004°22'0 0.0
2018-May-20 23:00N 51°54' E 004°22'0 0.0
2018-May-20 22:15N 51°54' E 004°22'0 0.0
2018-May-20 21:57N 51°54' E 004°22'0 0.0
2018-May-20 21:21N 51°54' E 004°22'0 0.0
2018-May-20 21:00N 51°54' E 004°22'0 0.0
2018-May-20 20:30N 51°54' E 004°22'0 0.0
2018-May-20 19:54N 51°54' E 004°22'0 0.0
2018-May-20 19:27N 51°54' E 004°22'0 0.0
2018-May-20 19:00N 51°54' E 004°22'0 0.0
2018-May-20 18:30N 51°54' E 004°22'0 0.0
2018-May-20 18:00N 51°54' E 004°22'0 0.0
2018-May-20 17:27N 51°54' E 004°22'0 0.0
2018-May-20 17:00N 51°54' E 004°22'0 0.0
2018-May-20 16:30N 51°54' E 004°22'0 0.0
2018-May-20 16:00N 51°54' E 004°22'0 0.0
2018-May-20 15:27N 51°54' E 004°22'0 0.0
2018-May-20 14:57N 51°54' E 004°22'0 0.0
2018-May-20 14:24N 51°54' E 004°22'0 0.0
2018-May-20 14:00N 51°54' E 004°22'0 0.0
2018-May-20 13:30N 51°54' E 004°22'0 0.0
2018-May-20 12:57N 51°54' E 004°22'0 0.0
2018-May-20 12:27N 51°54' E 004°22'0 0.0
2018-May-20 12:00N 51°54' E 004°22'0 0.0
2018-May-20 11:24N 51°54' E 004°22'0 0.0
2018-May-20 10:57N 51°54' E 004°22'0 0.0
2018-May-20 10:27N 51°54' E 004°22'0 0.0
2018-May-20 09:54N 51°54' E 004°22'0 0.0
2018-May-20 09:27N 51°54' E 004°22'0 0.0
2018-May-20 09:00N 51°54' E 004°22'0 0.0
2018-May-20 08:27N 51°54' E 004°22'0 0.0
2018-May-20 08:00N 51°54' E 004°22'0 0.0
2018-May-20 07:30N 51°54' E 004°22'0 0.0
2018-May-20 06:54N 51°54' E 004°22'0 0.0
2018-May-20 06:30N 51°54' E 004°22'0 0.0
2018-May-20 06:00N 51°54' E 004°22'0 0.0
2018-May-20 05:27N 51°54' E 004°22'0 0.0
2018-May-20 04:57N 51°54' E 004°22'0 0.0
2018-May-20 04:30N 51°54' E 004°22'0 0.0
2018-May-20 04:00N 51°54' E 004°22'0 0.0
2018-May-20 03:30N 51°54' E 004°22'0 0.0
2018-May-20 02:57N 51°54' E 004°22'0 0.0
2018-May-20 02:30N 51°54' E 004°22'0 0.0
2018-May-20 02:00N 51°54' E 004°22'0 0.0
2018-May-20 01:27N 51°54' E 004°22'0 0.0
2018-May-20 01:00N 51°54' E 004°22'0 0.0
2018-May-20 00:30N 51°54' E 004°22'0 0.0
2018-May-19 23:54N 51°54' E 004°22'0 0.0
2018-May-19 23:27N 51°54' E 004°22'0 0.0
2018-May-19 22:57N 51°54' E 004°22'0 0.0
2018-May-19 22:30N 51°54' E 004°22'0 0.0
2018-May-19 22:00N 51°54' E 004°22'0 0.0
2018-May-19 21:27N 51°54' E 004°22'0 0.0
2018-May-19 21:00N 51°54' E 004°22'0 0.0
2018-May-19 20:30N 51°54' E 004°22'0 0.0
2018-May-19 19:54N 51°54' E 004°22'0 0.0
2018-May-19 19:18N 51°54' E 004°22'0 0.0
2018-May-19 18:57N 51°54' E 004°22'0 0.0
2018-May-19 18:27N 51°54' E 004°22'0 0.0
2018-May-19 18:00N 51°54' E 004°22'0 0.0
2018-May-19 17:30N 51°54' E 004°22'0 0.0
2018-May-19 17:00N 51°54' E 004°22'0 0.0
2018-May-19 16:27N 51°54' E 004°22'0 0.0
2018-May-19 16:00N 51°54' E 004°22'0 0.0
2018-May-19 15:21N 51°54' E 004°22'0 0.0
2018-May-19 14:39N 51°54' E 004°22'0 0.0
2018-May-19 14:30N 51°54' E 004°22'0 0.0
2018-May-19 14:00N 51°54' E 004°22'0 0.0
2018-May-19 13:18N 51°54' E 004°22'0 0.0
2018-May-19 12:57N 51°54' E 004°22'0 0.0
2018-May-19 12:21N 51°54' E 004°22'0 0.0
2018-May-19 10:27N 51°54' E 004°22'0 0.0
2018-May-19 09:48N 51°54' E 004°22'0 0.0
2018-May-19 09:30N 51°54' E 004°22'0 0.0
2018-May-19 08:57N 51°54' E 004°22'0 0.0
2018-May-19 08:00N 51°54' E 004°22'0 0.0
2018-May-19 07:30N 51°54' E 004°22'0 0.0
2018-May-19 06:54N 51°54' E 004°22'0 0.0
2018-May-19 06:30N 51°54' E 004°22'0 0.0
2018-May-19 05:57N 51°54' E 004°22'0 0.0
2018-May-19 05:27N 51°54' E 004°22'0 0.0
2018-May-19 04:57N 51°54' E 004°22'0 0.0
2018-May-19 04:27N 51°54' E 004°22'0 0.0
2018-May-19 03:48N 51°54' E 004°22'0 0.0
2018-May-19 03:27N 51°54' E 004°22'0 0.0
2018-May-19 03:00N 51°54' E 004°22'0 0.0
2018-May-19 02:30N 51°54' E 004°22'0 0.0
2018-May-19 02:00N 51°54' E 004°22'0 0.0
2018-May-19 01:12N 51°54' E 004°22'0 0.0
2018-May-18 23:30N 51°54' E 004°22'0 0.0
2018-May-18 22:57N 51°54' E 004°22'0 0.0
2018-May-18 22:24N 51°54' E 004°22'0 0.0
2018-May-18 22:00N 51°54' E 004°22'0 0.0
2018-May-18 21:27N 51°54' E 004°22'0 0.0
2018-May-18 20:54N 51°54' E 004°22'0 0.0
2018-May-18 20:30N 51°54' E 004°22'0 0.0
2018-May-18 19:57N 51°54' E 004°22'0 0.0
2018-May-18 19:30N 51°54' E 004°22'0 0.0
2018-May-18 18:54N 51°54' E 004°22'0 0.0
2018-May-18 18:27N 51°54' E 004°22'0 0.0
2018-May-18 17:57N 51°54' E 004°22'0 0.0
2018-May-18 17:24N 51°54' E 004°22'0 0.0
2018-May-18 17:00N 51°54' E 004°22'0 0.0
2018-May-18 16:30N 51°54' E 004°22'0 0.0
2018-May-18 15:09N 51°54' E 004°22'0 0.0
2018-May-18 15:00N 51°54' E 004°22'0 0.0
2018-May-18 14:30N 51°54' E 004°22'0 0.0
2018-May-18 13:48N 51°54' E 004°22'0 0.0
2018-May-18 13:30N 51°54' E 004°22'0 0.0
2018-May-18 12:45N 51°54' E 004°22'0 0.0
2018-May-18 12:27N 51°54' E 004°22'0 0.0
2018-May-18 11:48N 51°54' E 004°22'0 0.0
2018-May-18 11:30N 51°54' E 004°22'0 0.0
2018-May-18 10:51N 51°54' E 004°22'0 0.0
2018-May-18 10:18N 51°54' E 004°22'0 0.0
2018-May-18 10:00N 51°54' E 004°22'0 0.0
2018-May-18 09:30N 51°54' E 004°22'0 0.0
2018-May-18 08:54N 51°54' E 004°22'0 0.0
2018-May-18 08:21N 51°54' E 004°22'0 0.0
2018-May-18 08:00N 51°54' E 004°22'0 0.0
2018-May-18 06:42N 51°54' E 004°22'0 0.0
2018-May-18 06:30N 51°54' E 004°22'0 0.0
2018-May-18 06:00N 51°54' E 004°22'0 0.0
2018-May-18 05:30N 51°54' E 004°22'0 0.0
2018-May-18 04:54N 51°54' E 004°22'0 0.0
2018-May-18 04:12N 51°54' E 004°22'0 0.0
2018-May-18 03:42N 51°54' E 004°22'0 0.0
2018-May-18 03:27N 51°54' E 004°22'0 0.0
2018-May-18 02:54N 51°54' E 004°22'0 0.0
2018-May-18 02:27N 51°54' E 004°22'0 0.0
2018-May-18 01:57N 51°54' E 004°22'0 0.0
2018-May-18 01:30N 51°54' E 004°22'0 0.0
2018-May-18 01:00N 51°54' E 004°22'0 0.0
2018-May-18 00:27N 51°54' E 004°22'0 0.0
2018-May-17 23:54N 51°54' E 004°22'0 0.0
2018-May-17 23:24N 51°54' E 004°22'0 0.0
2018-May-17 22:27N 51°54' E 004°22'0 0.0
2018-May-17 22:00N 51°54' E 004°22'0 0.0
2018-May-17 21:24N 51°54' E 004°22'0 0.0
2018-May-17 20:57N 51°54' E 004°22'0 0.0
2018-May-17 20:30N 51°54' E 004°22'0 0.0
2018-May-17 20:00N 51°54' E 004°22'0 0.0
2018-May-17 19:21N 51°54' E 004°22'0 0.0
2018-May-17 19:00N 51°54' E 004°22'0 0.0
2018-May-17 18:30N 51°54' E 004°22'0 0.0
2018-May-17 17:00N 51°54' E 004°22'0 0.0
2018-May-17 15:27N 51°54' E 004°22'0 0.0
2018-May-17 15:00N 51°54' E 004°22'0 0.0
2018-May-17 14:18N 51°54' E 004°22'0 0.0
2018-May-17 14:00N 51°54' E 004°22'0 0.0
2018-May-17 13:24N 51°54' E 004°22'0 0.0
2018-May-17 13:00N 51°54' E 004°22'0 0.0
2018-May-17 12:30N 51°54' E 004°22'0 0.0
2018-May-17 12:00N 51°54' E 004°22'0 0.3
2018-May-17 11:30N 51°54' E 004°21'3 6.3
2018-May-17 11:00N 51°54' E 004°16'4 8.5
2018-May-17 10:30N 51°57' E 004°11'510.9
2018-May-17 10:00N 51°59' E 004°03'5 9.9
2018-May-17 09:30N 51°59' E 003°55'510.2
2018-May-17 09:00N 51°59' E 003°47'4 8.4
2018-May-17 08:30N 51°58' E 003°40'4 8.5
2018-May-17 08:00N 51°56' E 003°34'1 0.6
2018-May-17 05:52N 51°54' E 003°34'0 0.4
2018-May-17 05:28N 51°54' E 003°34'0 0.1
2018-May-17 04:34N 51°55' E 003°34'0 0.1
2018-May-17 04:22N 51°55' E 003°34'0 0.0
2018-May-17 01:58N 51°55' E 003°34'0 0.3
2018-May-17 01:10N 51°54' E 003°34'0 0.1
2018-May-17 00:40N 51°54' E 003°34'0 0.1
2018-May-17 00:28N 51°54' E 003°34'0 0.1
2018-May-16 23:49N 51°54' E 003°34'0 0.0
2018-May-16 19:40N 51°54' E 003°34'0 0.0
2018-May-16 19:10N 51°54' E 003°34'0 0.0
2018-May-16 18:52N 51°54' E 003°34'0 0.0
2018-May-16 18:01N 51°54' E 003°34'0 0.2
2018-May-16 17:58N 51°54' E 003°34'0 0.2
2018-May-16 17:25N 51°54' E 003°34'2 4.4
2018-May-16 17:00N 51°55' E 003°31'3 6.5
2018-May-16 16:30N 51°56' E 003°26'612.2
2018-May-16 15:59N 51°54' E 003°17'612.4
2018-May-16 15:30N 51°52' E 003°08'812.7
2018-May-16 14:51N 51°49' E 002°55'513.2
2018-May-16 14:29N 51°48' E 002°47'713.0
2018-May-16 13:55N 51°45' E 002°36'613.7
2018-May-16 13:29N 51°40' E 002°30'713.5
2018-May-16 12:59N 51°35' E 002°23'713.3
2018-May-16 12:27N 51°30' E 002°16'612.8
2018-May-16 12:00N 51°25' E 002°12'713.2
2018-May-16 11:30N 51°19' E 002°08'612.6
2018-May-16 11:00N 51°13' E 002°03'612.4
2018-May-16 10:30N 51°10' E 001°55'611.5
2018-May-16 09:59N 51°06' E 001°48'2 3.3
2018-May-16 09:26N 51°04' E 001°47'0 0.0
2018-May-16 08:56N 51°04' E 001°47'0 0.1
2018-May-16 08:20N 51°04' E 001°47'0 0.5
2018-May-16 07:56N 51°04' E 001°47'5 7.9
2018-May-16 07:19N 51°02' E 001°40'3 7.5
2018-May-16 06:58N 51°02' E 001°36'710.1
2018-May-16 06:16N 50°56' E 001°30'510.1
2018-May-16 05:45N 50°51' E 001°26'5011.5
2018-May-16 01:24N 50°24' E 000°20'512.6
2018-May-16 01:00N 50°23' E 000°12'712.4
2018-May-16 00:26N 50°21' E 000°02'912.4
2018-May-15 23:42N 50°19' W 000°12'2013.5
2018-May-15 22:11N 50°12' W 000°43'314.8
2018-May-15 22:00N 50°12' W 000°47'815.3
2018-May-15 21:30N 50°09' W 000°58'816.3
2018-May-15 21:01N 50°07' W 001°10'917.3
2018-May-15 20:31N 50°05' W 001°23'917.7
2018-May-15 20:00N 50°02' W 001°36'918.1
2018-May-15 19:31N 49°60' W 001°50'918.2
2018-May-15 19:00N 49°57' W 002°04'1017.3
2018-May-15 18:25N 49°55' W 002°19'716.4
2018-May-15 17:58N 49°53' W 002°30'715.7
2018-May-15 17:30N 49°51' W 002°41'815.4
2018-May-15 17:00N 49°49' W 002°52'714.7
2018-May-15 16:30N 49°46' W 003°03'714.6
2018-May-15 16:01N 49°42' W 003°12'5213.2
2018-May-15 12:03N 49°16' W 004°22'111.3
2018-May-15 11:55N 49°15' W 004°24'2911.0
2018-May-15 09:18N 49°01' W 005°02'611.1
2018-May-15 08:43N 48°57' W 005°11'211.3
2018-May-15 08:30N 48°56' W 005°14'611.7
2018-May-15 08:00N 48°53' W 005°22'711.9
2018-May-15 07:25N 48°50' W 005°31'  
Track history (hours):
 
Tides and Currents Weather Stations Pressure Air Temp Water Temp Dewpoint Dewpoint Depression Visibility Wind Speed Wind Dir Waves Ship Positions

Glory Ace

Last reported at 2018-May-24 00:30 UTC. Time now 2018-May-24 00:35 UTC.
Position N 54°24' E 003°32'.

Length 142 m; draft 6.2 m.

Type: Tanker. MMSI: 354913000.

Date/timePositionNaut miles runAvg speedWind from/ knotsBaromVisibWave heightAir tempDewpointWater temp
2018-May-24 00:30N 54°24' E 003°32'612.0
2018-May-24 00:00N 54°18' E 003°34'911.7
2018-May-23 23:14N 54°09' E 003°37'210.9
2018-May-23 23:00N 54°06' E 003°36'911.7
2018-May-23 22:16N 54°15' E 003°34'412.9
2018-May-23 21:58N 54°19' E 003°34'613.0
2018-May-23 21:29N 54°25' E 003°34'3212.7
2018-May-23 18:56N 54°57' E 003°31'511.8
2018-May-23 18:30N 54°52' E 003°33'612.1
2018-May-23 18:00N 54°46' E 003°35'612.1
2018-May-23 17:29N 54°40' E 003°37'1311.9
2018-May-23 16:22N 54°27' E 003°42'412.0
2018-May-23 16:00N 54°23' E 003°44'612.0
2018-May-23 15:30N 54°17' E 003°46'611.7
2018-May-23 15:00N 54°11' E 003°47'1111.7
2018-May-23 14:05N 54°21' E 003°41'112.8
2018-May-23 14:00N 54°22' E 003°40'1812.9
2018-May-23 12:34N 54°40' E 003°34'112.8
2018-May-23 12:30N 54°41' E 003°34'30 2.8
2018-May-23 02:01N 54°59' E 004°14'213.0
2018-May-23 01:52N 55°01' E 004°17'30 9.7
2018-May-22 22:47N 54°44' E 003°34'1210.9
2018-May-22 21:39N 54°34' E 003°20'312.5
2018-May-22 21:23N 54°31' E 003°21'512.7
2018-May-22 20:59N 54°26' E 003°23'612.8
2018-May-22 20:30N 54°20' E 003°25'41 9.3
2018-May-22 16:07N 54°31' E 004°33'112.8
2018-May-22 16:00N 54°31' E 004°30'612.7
2018-May-22 15:30N 54°28' E 004°20'712.8
2018-May-22 14:58N 54°26' E 004°10'22 3.7
2018-May-22 09:12N 54°40' E 004°38'511.1
2018-May-22 08:46N 54°38' E 004°30'311.8
2018-May-22 08:30N 54°37' E 004°25'611.8
2018-May-22 07:59N 54°35' E 004°15'18 2.6
2018-May-22 00:51N 54°24' E 004°42'412.5
2018-May-22 00:30N 54°20' E 004°41'612.6
2018-May-22 00:00N 54°14' E 004°41'712.6
2018-May-21 23:29N 54°07' E 004°41'612.7
2018-May-21 23:00N 54°01' E 004°39'612.7
2018-May-21 22:30N 53°55' E 004°35'612.7
2018-May-21 22:00N 53°51' E 004°28'612.6
2018-May-21 21:30N 53°46' E 004°20'612.6
2018-May-21 21:00N 53°43' E 004°12'612.5
2018-May-21 20:30N 53°39' E 004°04'612.1
2018-May-21 19:59N 53°35' E 003°55'612.1
2018-May-21 19:30N 53°31' E 003°47'612.4
2018-May-21 19:00N 53°26' E 003°42'612.5
2018-May-21 18:30N 53°20' E 003°38'612.4
2018-May-21 18:00N 53°14' E 003°34'612.2
2018-May-21 17:30N 53°09' E 003°30'711.9
2018-May-21 16:54N 53°02' E 003°24'511.9
2018-May-21 16:30N 52°58' E 003°22'711.7
2018-May-21 15:53N 52°51' E 003°17'411.4
2018-May-21 15:29N 52°47' E 003°14'1610.9
2018-May-21 14:02N 52°32' E 003°06'411.2
2018-May-21 13:39N 52°28' E 003°07'211.2
2018-May-21 13:28N 52°26' E 003°07'510.9
2018-May-21 13:00N 52°21' E 003°09'612.7
2018-May-21 12:30N 52°17' E 003°18'612.0
2018-May-21 12:01N 52°13' E 003°25'612.1
2018-May-21 11:30N 52°09' E 003°31'612.9
2018-May-21 11:00N 52°06' E 003°41'713.0
2018-May-21 10:30N 52°03' E 003°50'510.0
2018-May-21 10:00N 52°01' E 003°58'612.5
2018-May-21 09:30N 51°59' E 004°07'612.2
2018-May-21 09:00N 51°55' E 004°15'4 8.5
2018-May-21 08:30N 51°54' E 004°22'0 0.1
2018-May-21 08:00N 51°54' E 004°22'0 0.0
2018-May-21 07:24N 51°54' E 004°22'0 0.0
2018-May-21 06:57N 51°54' E 004°22'0 0.0
2018-May-21 06:30N 51°54' E 004°22'0 0.0
2018-May-21 06:00N 51°54' E 004°22'0 0.0
2018-May-21 05:24N 51°54' E 004°22'0 0.0
2018-May-21 04:51N 51°54' E 004°22'0 0.0
2018-May-21 04:30N 51°54' E 004°22'0 0.0
2018-May-21 03:54N 51°54' E 004°22'0 0.0
2018-May-21 03:18N 51°54' E 004°22'0 0.0
2018-May-21 02:57N 51°54' E 004°22'0 0.0
2018-May-21 02:30N 51°54' E 004°22'0 0.0
2018-May-21 02:00N 51°54' E 004°22'0 0.0
2018-May-21 01:27N 51°54' E 004°22'0 0.0
2018-May-21 01:00N 51°54' E 004°22'0 0.0
2018-May-21 00:30N 51°54' E 004°22'0 0.0
2018-May-21 00:00N 51°54' E 004°22'0 0.0
2018-May-20 23:30N 51°54' E 004°22'0 0.0
2018-May-20 23:00N 51°54' E 004°22'0 0.0
2018-May-20 22:15N 51°54' E 004°22'0 0.0
2018-May-20 21:57N 51°54' E 004°22'0 0.0
2018-May-20 21:21N 51°54' E 004°22'0 0.0
2018-May-20 21:00N 51°54' E 004°22'0 0.0
2018-May-20 20:30N 51°54' E 004°22'0 0.0
2018-May-20 19:54N 51°54' E 004°22'0 0.0
2018-May-20 19:27N 51°54' E 004°22'0 0.0
2018-May-20 19:00N 51°54' E 004°22'0 0.0
2018-May-20 18:30N 51°54' E 004°22'0 0.0
2018-May-20 18:00N 51°54' E 004°22'0 0.0
2018-May-20 17:27N 51°54' E 004°22'0 0.0
2018-May-20 17:00N 51°54' E 004°22'0 0.0
2018-May-20 16:30N 51°54' E 004°22'0 0.0
2018-May-20 16:00N 51°54' E 004°22'0 0.0
2018-May-20 15:27N 51°54' E 004°22'0 0.0
2018-May-20 14:57N 51°54' E 004°22'0 0.0
2018-May-20 14:24N 51°54' E 004°22'0 0.0
2018-May-20 14:00N 51°54' E 004°22'0 0.0
2018-May-20 13:30N 51°54' E 004°22'0 0.0
2018-May-20 12:57N 51°54' E 004°22'0 0.0
2018-May-20 12:27N 51°54' E 004°22'0 0.0
2018-May-20 12:00N 51°54' E 004°22'0 0.0
2018-May-20 11:24N 51°54' E 004°22'0 0.0
2018-May-20 10:57N 51°54' E 004°22'0 0.0
2018-May-20 10:27N 51°54' E 004°22'0 0.0
2018-May-20 09:54N 51°54' E 004°22'0 0.0
2018-May-20 09:27N 51°54' E 004°22'0 0.0
2018-May-20 09:00N 51°54' E 004°22'0 0.0
2018-May-20 08:27N 51°54' E 004°22'0 0.0
2018-May-20 08:00N 51°54' E 004°22'0 0.0
2018-May-20 07:30N 51°54' E 004°22'0 0.0
2018-May-20 06:54N 51°54' E 004°22'0 0.0
2018-May-20 06:30N 51°54' E 004°22'0 0.0
2018-May-20 06:00N 51°54' E 004°22'0 0.0
2018-May-20 05:27N 51°54' E 004°22'0 0.0
2018-May-20 04:57N 51°54' E 004°22'0 0.0
2018-May-20 04:30N 51°54' E 004°22'0 0.0
2018-May-20 04:00N 51°54' E 004°22'0 0.0
2018-May-20 03:30N 51°54' E 004°22'0 0.0
2018-May-20 02:57N 51°54' E 004°22'0 0.0
2018-May-20 02:30N 51°54' E 004°22'0 0.0
2018-May-20 02:00N 51°54' E 004°22'0 0.0
2018-May-20 01:27N 51°54' E 004°22'0 0.0
2018-May-20 01:00N 51°54' E 004°22'0 0.0
2018-May-20 00:30N 51°54' E 004°22'0 0.0
2018-May-19 23:54N 51°54' E 004°22'0 0.0
2018-May-19 23:27N 51°54' E 004°22'0 0.0
2018-May-19 22:57N 51°54' E 004°22'0 0.0
2018-May-19 22:30N 51°54' E 004°22'0 0.0
2018-May-19 22:00N 51°54' E 004°22'0 0.0
2018-May-19 21:27N 51°54' E 004°22'0 0.0
2018-May-19 21:00N 51°54' E 004°22'0 0.0
2018-May-19 20:30N 51°54' E 004°22'0 0.0
2018-May-19 19:54N 51°54' E 004°22'0 0.0
2018-May-19 19:18N 51°54' E 004°22'0 0.0
2018-May-19 18:57N 51°54' E 004°22'0 0.0
2018-May-19 18:27N 51°54' E 004°22'0 0.0
2018-May-19 18:00N 51°54' E 004°22'0 0.0
2018-May-19 17:30N 51°54' E 004°22'0 0.0
2018-May-19 17:00N 51°54' E 004°22'0 0.0
2018-May-19 16:27N 51°54' E 004°22'0 0.0
2018-May-19 16:00N 51°54' E 004°22'0 0.0
2018-May-19 15:21N 51°54' E 004°22'0 0.0
2018-May-19 14:39N 51°54' E 004°22'0 0.0
2018-May-19 14:30N 51°54' E 004°22'0 0.0
2018-May-19 14:00N 51°54' E 004°22'0 0.0
2018-May-19 13:18N 51°54' E 004°22'0 0.0
2018-May-19 12:57N 51°54' E 004°22'0 0.0
2018-May-19 12:21N 51°54' E 004°22'0 0.0
2018-May-19 10:27N 51°54' E 004°22'0 0.0
2018-May-19 09:48N 51°54' E 004°22'0 0.0
2018-May-19 09:30N 51°54' E 004°22'0 0.0
2018-May-19 08:57N 51°54' E 004°22'0 0.0
2018-May-19 08:00N 51°54' E 004°22'0 0.0
2018-May-19 07:30N 51°54' E 004°22'0 0.0
2018-May-19 06:54N 51°54' E 004°22'0 0.0
2018-May-19 06:30N 51°54' E 004°22'0 0.0
2018-May-19 05:57N 51°54' E 004°22'0 0.0
2018-May-19 05:27N 51°54' E 004°22'0 0.0
2018-May-19 04:57N 51°54' E 004°22'0 0.0
2018-May-19 04:27N 51°54' E 004°22'0 0.0
2018-May-19 03:48N 51°54' E 004°22'0 0.0
2018-May-19 03:27N 51°54' E 004°22'0 0.0
2018-May-19 03:00N 51°54' E 004°22'0 0.0
2018-May-19 02:30N 51°54' E 004°22'0 0.0
2018-May-19 02:00N 51°54' E 004°22'0 0.0
2018-May-19 01:12N 51°54' E 004°22'0 0.0
2018-May-18 23:30N 51°54' E 004°22'0 0.0
2018-May-18 22:57N 51°54' E 004°22'0 0.0
2018-May-18 22:24N 51°54' E 004°22'0 0.0
2018-May-18 22:00N 51°54' E 004°22'0 0.0
2018-May-18 21:27N 51°54' E 004°22'0 0.0
2018-May-18 20:54N 51°54' E 004°22'0 0.0
2018-May-18 20:30N 51°54' E 004°22'0 0.0
2018-May-18 19:57N 51°54' E 004°22'0 0.0
2018-May-18 19:30N 51°54' E 004°22'0 0.0
2018-May-18 18:54N 51°54' E 004°22'0 0.0
2018-May-18 18:27N 51°54' E 004°22'0 0.0
2018-May-18 17:57N 51°54' E 004°22'0 0.0
2018-May-18 17:24N 51°54' E 004°22'0 0.0
2018-May-18 17:00N 51°54' E 004°22'0 0.0
2018-May-18 16:30N 51°54' E 004°22'0 0.0
2018-May-18 15:09N 51°54' E 004°22'0 0.0
2018-May-18 15:00N 51°54' E 004°22'0 0.0
2018-May-18 14:30N 51°54' E 004°22'0 0.0
2018-May-18 13:48N 51°54' E 004°22'0 0.0
2018-May-18 13:30N 51°54' E 004°22'0 0.0
2018-May-18 12:45N 51°54' E 004°22'0 0.0
2018-May-18 12:27N 51°54' E 004°22'0 0.0
2018-May-18 11:48N 51°54' E 004°22'0 0.0
2018-May-18 11:30N 51°54' E 004°22'0 0.0
2018-May-18 10:51N 51°54' E 004°22'0 0.0
2018-May-18 10:18N 51°54' E 004°22'0 0.0
2018-May-18 10:00N 51°54' E 004°22'0 0.0
2018-May-18 09:30N 51°54' E 004°22'0 0.0
2018-May-18 08:54N 51°54' E 004°22'0 0.0
2018-May-18 08:21N 51°54' E 004°22'0 0.0
2018-May-18 08:00N 51°54' E 004°22'0 0.0
2018-May-18 06:42N 51°54' E 004°22'0 0.0
2018-May-18 06:30N 51°54' E 004°22'0 0.0
2018-May-18 06:00N 51°54' E 004°22'0 0.0
2018-May-18 05:30N 51°54' E 004°22'0 0.0
2018-May-18 04:54N 51°54' E 004°22'0 0.0
2018-May-18 04:12N 51°54' E 004°22'0 0.0
2018-May-18 03:42N 51°54' E 004°22'0 0.0
2018-May-18 03:27N 51°54' E 004°22'0 0.0
2018-May-18 02:54N 51°54' E 004°22'0 0.0
2018-May-18 02:27N 51°54' E 004°22'0 0.0
2018-May-18 01:57N 51°54' E 004°22'0 0.0
2018-May-18 01:30N 51°54' E 004°22'0 0.0
2018-May-18 01:00N 51°54' E 004°22'0 0.0
2018-May-18 00:27N 51°54' E 004°22'0 0.0
2018-May-17 23:54N 51°54' E 004°22'0 0.0
2018-May-17 23:24N 51°54' E 004°22'0 0.0
2018-May-17 22:27N 51°54' E 004°22'0 0.0
2018-May-17 22:00N 51°54' E 004°22'0 0.0
2018-May-17 21:24N 51°54' E 004°22'0 0.0
2018-May-17 20:57N 51°54' E 004°22'0 0.0
2018-May-17 20:30N 51°54' E 004°22'0 0.0
2018-May-17 20:00N 51°54' E 004°22'0 0.0
2018-May-17 19:21N 51°54' E 004°22'0 0.0
2018-May-17 19:00N 51°54' E 004°22'0 0.0
2018-May-17 18:30N 51°54' E 004°22'0 0.0
2018-May-17 17:00N 51°54' E 004°22'0 0.0
2018-May-17 15:27N 51°54' E 004°22'0 0.0
2018-May-17 15:00N 51°54' E 004°22'0 0.0
2018-May-17 14:18N 51°54' E 004°22'0 0.0
2018-May-17 14:00N 51°54' E 004°22'0 0.0
2018-May-17 13:24N 51°54' E 004°22'0 0.0
2018-May-17 13:00N 51°54' E 004°22'0 0.0
2018-May-17 12:30N 51°54' E 004°22'0 0.0
2018-May-17 12:00N 51°54' E 004°22'0 0.3
2018-May-17 11:30N 51°54' E 004°21'3 6.3
2018-May-17 11:00N 51°54' E 004°16'4 8.5
2018-May-17 10:30N 51°57' E 004°11'510.9
2018-May-17 10:00N 51°59' E 004°03'5 9.9
2018-May-17 09:30N 51°59' E 003°55'510.2
2018-May-17 09:00N 51°59' E 003°47'4 8.4
2018-May-17 08:30N 51°58' E 003°40'4 8.5
2018-May-17 08:00N 51°56' E 003°34'1 0.6
2018-May-17 05:52N 51°54' E 003°34'0 0.4
2018-May-17 05:28N 51°54' E 003°34'0 0.1
2018-May-17 04:34N 51°55' E 003°34'0 0.1
2018-May-17 04:22N 51°55' E 003°34'0 0.0
2018-May-17 01:58N 51°55' E 003°34'0 0.3
2018-May-17 01:10N 51°54' E 003°34'0 0.1
2018-May-17 00:40N 51°54' E 003°34'0 0.1
2018-May-17 00:28N 51°54' E 003°34'0 0.1
2018-May-16 23:49N 51°54' E 003°34'0 0.0
2018-May-16 19:40N 51°54' E 003°34'0 0.0
2018-May-16 19:10N 51°54' E 003°34'0 0.0
2018-May-16 18:52N 51°54' E 003°34'0 0.0
2018-May-16 18:01N 51°54' E 003°34'0 0.2
2018-May-16 17:58N 51°54' E 003°34'0 0.2
2018-May-16 17:25N 51°54' E 003°34'2 4.4
2018-May-16 17:00N 51°55' E 003°31'3 6.5
2018-May-16 16:30N 51°56' E 003°26'612.2
2018-May-16 15:59N 51°54' E 003°17'612.4
2018-May-16 15:30N 51°52' E 003°08'812.7
2018-May-16 14:51N 51°49' E 002°55'513.2
2018-May-16 14:29N 51°48' E 002°47'713.0
2018-May-16 13:55N 51°45' E 002°36'613.7
2018-May-16 13:29N 51°40' E 002°30'713.5
2018-May-16 12:59N 51°35' E 002°23'713.3
2018-May-16 12:27N 51°30' E 002°16'612.8
2018-May-16 12:00N 51°25' E 002°12'713.2
2018-May-16 11:30N 51°19' E 002°08'612.6
2018-May-16 11:00N 51°13' E 002°03'612.4
2018-May-16 10:30N 51°10' E 001°55'611.5
2018-May-16 09:59N 51°06' E 001°48'2 3.3
2018-May-16 09:26N 51°04' E 001°47'0 0.0
2018-May-16 08:56N 51°04' E 001°47'0 0.1
2018-May-16 08:20N 51°04' E 001°47'0 0.5
2018-May-16 07:56N 51°04' E 001°47'5 7.9
2018-May-16 07:19N 51°02' E 001°40'3 7.5
2018-May-16 06:58N 51°02' E 001°36'710.1
2018-May-16 06:16N 50°56' E 001°30'510.1
2018-May-16 05:45N 50°51' E 001°26'5011.5
2018-May-16 01:24N 50°24' E 000°20'512.6
2018-May-16 01:00N 50°23' E 000°12'712.4
2018-May-16 00:26N 50°21' E 000°02'912.4
2018-May-15 23:42N 50°19' W 000°12'2013.5
2018-May-15 22:11N 50°12' W 000°43'314.8
2018-May-15 22:00N 50°12' W 000°47'815.3
2018-May-15 21:30N 50°09' W 000°58'816.3
2018-May-15 21:01N 50°07' W 001°10'917.3
2018-May-15 20:31N 50°05' W 001°23'917.7
2018-May-15 20:00N 50°02' W 001°36'918.1
2018-May-15 19:31N 49°60' W 001°50'918.2
2018-May-15 19:00N 49°57' W 002°04'1017.3
2018-May-15 18:25N 49°55' W 002°19'716.4
2018-May-15 17:58N 49°53' W 002°30'715.7
2018-May-15 17:30N 49°51' W 002°41'815.4
2018-May-15 17:00N 49°49' W 002°52'714.7
2018-May-15 16:30N 49°46' W 003°03'714.6
2018-May-15 16:01N 49°42' W 003°12'5213.2
2018-May-15 12:03N 49°16' W 004°22'111.3
2018-May-15 11:55N 49°15' W 004°24'2911.0
2018-May-15 09:18N 49°01' W 005°02'611.1
2018-May-15 08:43N 48°57' W 005°11'211.3
2018-May-15 08:30N 48°56' W 005°14'611.7
2018-May-15 08:00N 48°53' W 005°22'711.9
2018-May-15 07:25N 48°50' W 005°31'  

Dump ship's entire track history